sensor_id;sensor_type;location;lat;lon;timestamp;pressure;altitude;pressure_sealevel;temperature;humidity
49122;BME280;35529;44.342;25.944;2022-09-29T00:01:35;99730.34;;;17.38;100.00
49122;BME280;35529;44.342;25.944;2022-09-29T00:04:01;99731.41;;;17.37;100.00
49122;BME280;35529;44.342;25.944;2022-09-29T00:06:27;99727.41;;;17.39;100.00
49122;BME280;35529;44.342;25.944;2022-09-29T00:08:53;99719.09;;;17.41;100.00
49122;BME280;35529;44.342;25.944;2022-09-29T00:11:19;99718.81;;;17.42;100.00
49122;BME280;35529;44.342;25.944;2022-09-29T00:13:46;99717.75;;;17.43;100.00
49122;BME280;35529;44.342;25.944;2022-09-29T00:16:13;99712.44;;;17.49;100.00
49122;BME280;35529;44.342;25.944;2022-09-29T00:18:39;99719.44;;;17.55;100.00
49122;BME280;35529;44.342;25.944;2022-09-29T00:21:10;99720.78;;;17.63;100.00
49122;BME280;35529;44.342;25.944;2022-09-29T00:23:38;99713.84;;;17.72;100.00
49122;BME280;35529;44.342;25.944;2022-09-29T00:26:05;99706.66;;;17.78;100.00
49122;BME280;35529;44.342;25.944;2022-09-29T00:28:32;99715.78;;;17.76;100.00
49122;BME280;35529;44.342;25.944;2022-09-29T00:30:59;99702.50;;;17.44;100.00
49122;BME280;35529;44.342;25.944;2022-09-29T00:33:29;99684.44;;;17.34;100.00
49122;BME280;35529;44.342;25.944;2022-09-29T00:36:00;99692.97;;;17.21;100.00
49122;BME280;35529;44.342;25.944;2022-09-29T00:38:26;99676.28;;;17.14;100.00
49122;BME280;35529;44.342;25.944;2022-09-29T00:40:53;99675.75;;;17.17;100.00
49122;BME280;35529;44.342;25.944;2022-09-29T00:43:22;99676.06;;;17.20;100.00
49122;BME280;35529;44.342;25.944;2022-09-29T00:45:49;99679.84;;;17.24;100.00
49122;BME280;35529;44.342;25.944;2022-09-29T00:48:16;99679.28;;;17.22;100.00
49122;BME280;35529;44.342;25.944;2022-09-29T00:50:51;99664.25;;;17.16;100.00
49122;BME280;35529;44.342;25.944;2022-09-29T00:53:21;99653.22;;;17.13;100.00
49122;BME280;35529;44.342;25.944;2022-09-29T00:58:30;99650.50;;;17.07;100.00
49122;BME280;35529;44.342;25.944;2022-09-29T01:01:00;99653.16;;;17.02;100.00
49122;BME280;35529;44.342;25.944;2022-09-29T01:03:31;99656.66;;;17.03;100.00
49122;BME280;35529;44.342;25.944;2022-09-29T01:06:02;99650.72;;;17.01;100.00
49122;BME280;35529;44.342;25.944;2022-09-29T01:08:35;99644.56;;;17.00;100.00
49122;BME280;35529;44.342;25.944;2022-09-29T01:11:04;99648.88;;;17.01;100.00
49122;BME280;35529;44.342;25.944;2022-09-29T01:13:31;99656.91;;;17.01;100.00
49122;BME280;35529;44.342;25.944;2022-09-29T01:15:58;99657.16;;;17.00;100.00
49122;BME280;35529;44.342;25.944;2022-09-29T01:18:24;99647.78;;;16.97;100.00
49122;BME280;35529;44.342;25.944;2022-09-29T01:21:02;99640.22;;;16.94;100.00
49122;BME280;35529;44.342;25.944;2022-09-29T01:23:40;99644.53;;;16.95;100.00
49122;BME280;35529;44.342;25.944;2022-09-29T01:31:22;99646.91;;;16.91;100.00
49122;BME280;35529;44.342;25.944;2022-09-29T01:36:58;99645.16;;;16.70;100.00
49122;BME280;35529;44.342;25.944;2022-09-29T01:39:31;99641.38;;;16.66;100.00
49122;BME280;35529;44.342;25.944;2022-09-29T01:42:04;99643.50;;;16.64;100.00
49122;BME280;35529;44.342;25.944;2022-09-29T01:44:36;99645.63;;;16.62;100.00
49122;BME280;35529;44.342;25.944;2022-09-29T01:47:06;99645.63;;;16.62;100.00
49122;BME280;35529;44.342;25.944;2022-09-29T01:49:35;99641.06;;;16.57;100.00
49122;BME280;35529;44.342;25.944;2022-09-29T01:52:07;99648.53;;;16.55;100.00
49122;BME280;35529;44.342;25.944;2022-09-29T01:54:41;99644.75;;;16.51;100.00
49122;BME280;35529;44.342;25.944;2022-09-29T01:57:10;99655.09;;;16.37;100.00
49122;BME280;35529;44.342;25.944;2022-09-29T01:59:46;99645.84;;;16.22;100.00
49122;BME280;35529;44.342;25.944;2022-09-29T02:02:15;99655.94;;;16.10;100.00
49122;BME280;35529;44.342;25.944;2022-09-29T02:04:45;99660.13;;;16.01;100.00
49122;BME280;35529;44.342;25.944;2022-09-29T02:07:18;99650.66;;;15.93;100.00
49122;BME280;35529;44.342;25.944;2022-09-29T02:09:48;99652.50;;;15.87;100.00
49122;BME280;35529;44.342;25.944;2022-09-29T02:12:21;99651.13;;;15.85;100.00
49122;BME280;35529;44.342;25.944;2022-09-29T02:14:50;99652.50;;;15.87;100.00
49122;BME280;35529;44.342;25.944;2022-09-29T02:17:20;99651.13;;;15.85;100.00
49122;BME280;35529;44.342;25.944;2022-09-29T02:19:50;99651.91;;;15.85;100.00
49122;BME280;35529;44.342;25.944;2022-09-29T02:22:17;99657.22;;;15.80;100.00
49122;BME280;35529;44.342;25.944;2022-09-29T02:24:45;99661.16;;;15.78;100.00
49122;BME280;35529;44.342;25.944;2022-09-29T02:27:23;99664.84;;;15.71;100.00
49122;BME280;35529;44.342;25.944;2022-09-29T02:29:50;99664.81;;;15.66;100.00
49122;BME280;35529;44.342;25.944;2022-09-29T02:32:31;99670.16;;;15.66;100.00
49122;BME280;35529;44.342;25.944;2022-09-29T02:35:01;99674.38;;;15.62;100.00
49122;BME280;35529;44.342;25.944;2022-09-29T02:42:50;99685.47;;;15.49;100.00
49122;BME280;35529;44.342;25.944;2022-09-29T02:50:35;99678.84;;;15.34;100.00
49122;BME280;35529;44.342;25.944;2022-09-29T02:55:59;99681.03;;;15.37;100.00
49122;BME280;35529;44.342;25.944;2022-09-29T03:01:29;99700.75;;;15.31;100.00
49122;BME280;35529;44.342;25.944;2022-09-29T03:03:55;99695.88;;;15.28;100.00
49122;BME280;35529;44.342;25.944;2022-09-29T03:06:24;99713.19;;;15.20;100.00
49122;BME280;35529;44.342;25.944;2022-09-29T03:08:52;99703.13;;;15.11;100.00
49122;BME280;35529;44.342;25.944;2022-09-29T03:11:24;99708.09;;;15.02;100.00
49122;BME280;35529;44.342;25.944;2022-09-29T03:16:45;99692.56;;;14.65;100.00
49122;BME280;35529;44.342;25.944;2022-09-29T03:19:11;99700.81;;;14.63;100.00
49122;BME280;35529;44.342;25.944;2022-09-29T03:21:39;99697.38;;;14.51;100.00
49122;BME280;35529;44.342;25.944;2022-09-29T03:24:07;99695.56;;;14.39;100.00
49122;BME280;35529;44.342;25.944;2022-09-29T03:26:34;99703.34;;;14.41;100.00
49122;BME280;35529;44.342;25.944;2022-09-29T03:29:03;99702.69;;;14.34;100.00
49122;BME280;35529;44.342;25.944;2022-09-29T03:31:29;99704.94;;;14.25;100.00
49122;BME280;35529;44.342;25.944;2022-09-29T03:33:57;99707.44;;;14.15;100.00
49122;BME280;35529;44.342;25.944;2022-09-29T03:36:23;99707.00;;;14.06;100.00
49122;BME280;35529;44.342;25.944;2022-09-29T03:38:49;99704.13;;;13.96;100.00
49122;BME280;35529;44.342;25.944;2022-09-29T03:41:25;99706.72;;;13.90;100.00
49122;BME280;35529;44.342;25.944;2022-09-29T03:43:53;99703.34;;;13.83;100.00
49122;BME280;35529;44.342;25.944;2022-09-29T03:46:19;99695.34;;;13.83;100.00
49122;BME280;35529;44.342;25.944;2022-09-29T03:48:45;99692.53;;;13.90;100.00
49122;BME280;35529;44.342;25.944;2022-09-29T03:51:14;99698.59;;;13.85;100.00
49122;BME280;35529;44.342;25.944;2022-09-29T03:53:42;99687.59;;;13.82;100.00
49122;BME280;35529;44.342;25.944;2022-09-29T03:56:10;99694.66;;;13.88;100.00
49122;BME280;35529;44.342;25.944;2022-09-29T03:58:40;99685.81;;;13.87;100.00
49122;BME280;35529;44.342;25.944;2022-09-29T04:01:09;99688.25;;;13.89;100.00
49122;BME280;35529;44.342;25.944;2022-09-29T04:03:37;99693.78;;;13.99;100.00
49122;BME280;35529;44.342;25.944;2022-09-29T04:06:03;99692.41;;;13.97;100.00
49122;BME280;35529;44.342;25.944;2022-09-29T04:08:29;99690.00;;;13.83;100.00
49122;BME280;35529;44.342;25.944;2022-09-29T04:10:58;99690.75;;;13.79;100.00
49122;BME280;35529;44.342;25.944;2022-09-29T04:13:26;99700.81;;;13.77;100.00
49122;BME280;35529;44.342;25.944;2022-09-29T04:15:58;99703.72;;;13.75;100.00
49122;BME280;35529;44.342;25.944;2022-09-29T04:18:25;99699.28;;;13.81;100.00
49122;BME280;35529;44.342;25.944;2022-09-29T04:20:53;99700.94;;;13.82;100.00
49122;BME280;35529;44.342;25.944;2022-09-29T04:23:22;99700.44;;;13.85;100.00
49122;BME280;35529;44.342;25.944;2022-09-29T04:25:51;99705.31;;;13.88;100.00
49122;BME280;35529;44.342;25.944;2022-09-29T04:28:17;99705.97;;;13.95;100.00
49122;BME280;35529;44.342;25.944;2022-09-29T04:30:43;99711.66;;;13.99;100.00
49122;BME280;35529;44.342;25.944;2022-09-29T04:33:11;99714.75;;;14.07;100.00
49122;BME280;35529;44.342;25.944;2022-09-29T04:35:39;99716.88;;;14.05;100.00
49122;BME280;35529;44.342;25.944;2022-09-29T04:38:05;99717.53;;;14.13;100.00
49122;BME280;35529;44.342;25.944;2022-09-29T04:40:34;99716.88;;;14.22;100.00
49122;BME280;35529;44.342;25.944;2022-09-29T04:43:01;99717.47;;;14.24;100.00
49122;BME280;35529;44.342;25.944;2022-09-29T04:45:27;99725.44;;;14.36;100.00
49122;BME280;35529;44.342;25.944;2022-09-29T04:47:53;99720.50;;;14.28;100.00
49122;BME280;35529;44.342;25.944;2022-09-29T04:50:19;99722.66;;;14.31;100.00
49122;BME280;35529;44.342;25.944;2022-09-29T04:52:51;99714.66;;;14.31;100.00
49122;BME280;35529;44.342;25.944;2022-09-29T04:55:17;99709.44;;;14.53;100.00
49122;BME280;35529;44.342;25.944;2022-09-29T04:57:45;99707.78;;;14.64;100.00
49122;BME280;35529;44.342;25.944;2022-09-29T05:00:16;99724.38;;;14.66;100.00
49122;BME280;35529;44.342;25.944;2022-09-29T05:02:42;99713.28;;;14.74;100.00
49122;BME280;35529;44.342;25.944;2022-09-29T05:05:08;99711.34;;;14.87;100.00
49122;BME280;35529;44.342;25.944;2022-09-29T05:07:37;99714.47;;;15.01;100.00
49122;BME280;35529;44.342;25.944;2022-09-29T05:10:06;99717.88;;;15.13;100.00
49122;BME280;35529;44.342;25.944;2022-09-29T05:12:33;99710.69;;;15.14;100.00
49122;BME280;35529;44.342;25.944;2022-09-29T05:14:59;99718.53;;;15.03;100.00
49122;BME280;35529;44.342;25.944;2022-09-29T05:17:25;99708.56;;;14.99;100.00
49122;BME280;35529;44.342;25.944;2022-09-29T05:19:51;99716.38;;;15.00;100.00
49122;BME280;35529;44.342;25.944;2022-09-29T05:22:17;99713.75;;;15.05;100.00
49122;BME280;35529;44.342;25.944;2022-09-29T05:24:52;99714.66;;;15.11;100.00
49122;BME280;35529;44.342;25.944;2022-09-29T05:27:18;99717.78;;;15.25;100.00
49122;BME280;35529;44.342;25.944;2022-09-29T05:29:44;99721.66;;;15.34;100.00
49122;BME280;35529;44.342;25.944;2022-09-29T05:32:10;99727.69;;;15.47;100.00
49122;BME280;35529;44.342;25.944;2022-09-29T05:34:37;99735.53;;;15.53;100.00
49122;BME280;35529;44.342;25.944;2022-09-29T05:37:05;99737.72;;;15.56;100.00
49122;BME280;35529;44.342;25.944;2022-09-29T05:39:32;99740.28;;;15.68;100.00
49122;BME280;35529;44.342;25.944;2022-09-29T05:42:02;99736.03;;;15.72;100.00
49122;BME280;35529;44.342;25.944;2022-09-29T05:44:31;99739.13;;;15.81;100.00
49122;BME280;35529;44.342;25.944;2022-09-29T05:46:58;99733.34;;;15.89;100.00
49122;BME280;35529;44.342;25.944;2022-09-29T05:49:27;99744.97;;;16.00;100.00
49122;BME280;35529;44.342;25.944;2022-09-29T05:51:55;99745.41;;;16.14;100.00
49122;BME280;35529;44.342;25.944;2022-09-29T05:54:21;99745.31;;;16.31;100.00
49122;BME280;35529;44.342;25.944;2022-09-29T05:56:48;99745.47;;;16.47;100.00
49122;BME280;35529;44.342;25.944;2022-09-29T05:59:14;99747.47;;;16.62;100.00
49122;BME280;35529;44.342;25.944;2022-09-29T06:01:41;99739.81;;;16.75;100.00
49122;BME280;35529;44.342;25.944;2022-09-29T06:04:09;99737.28;;;16.91;100.00
49122;BME280;35529;44.342;25.944;2022-09-29T06:06:35;99740.06;;;17.06;100.00
49122;BME280;35529;44.342;25.944;2022-09-29T06:09:05;99733.78;;;17.28;100.00
49122;BME280;35529;44.342;25.944;2022-09-29T06:11:31;99732.28;;;17.48;100.00
49122;BME280;35529;44.342;25.944;2022-09-29T06:13:57;99745.53;;;17.65;100.00
49122;BME280;35529;44.342;25.944;2022-09-29T06:16:24;99741.56;;;17.83;100.00
49122;BME280;35529;44.342;25.944;2022-09-29T06:18:51;99745.41;;;17.97;100.00
49122;BME280;35529;44.342;25.944;2022-09-29T06:21:20;99754.59;;;18.17;100.00
49122;BME280;35529;44.342;25.944;2022-09-29T06:23:48;99758.69;;;18.40;100.00
49122;BME280;35529;44.342;25.944;2022-09-29T06:26:17;99740.16;;;18.59;100.00
49122;BME280;35529;44.342;25.944;2022-09-29T06:28:48;99742.03;;;18.79;100.00
49122;BME280;35529;44.342;25.944;2022-09-29T06:31:17;99740.44;;;19.04;100.00
49122;BME280;35529;44.342;25.944;2022-09-29T06:33:43;99730.19;;;19.26;100.00
49122;BME280;35529;44.342;25.944;2022-09-29T06:38:54;99727.34;;;19.73;100.00
49122;BME280;35529;44.342;25.944;2022-09-29T06:41:23;99729.16;;;19.93;100.00
49122;BME280;35529;44.342;25.944;2022-09-29T06:43:49;99722.34;;;20.11;100.00
49122;BME280;35529;44.342;25.944;2022-09-29T06:46:23;99720.38;;;20.22;100.00
49122;BME280;35529;44.342;25.944;2022-09-29T06:48:54;99723.56;;;20.29;100.00
49122;BME280;35529;44.342;25.944;2022-09-29T06:51:23;99723.03;;;20.32;100.00
49122;BME280;35529;44.342;25.944;2022-09-29T06:53:52;99730.25;;;20.37;100.00
49122;BME280;35529;44.342;25.944;2022-09-29T06:56:22;99727.84;;;20.35;100.00
49122;BME280;35529;44.342;25.944;2022-09-29T06:58:50;99727.56;;;20.37;100.00
49122;BME280;35529;44.342;25.944;2022-09-29T07:01:19;99740.22;;;20.41;100.00
49122;BME280;35529;44.342;25.944;2022-09-29T07:03:45;99740.16;;;20.47;100.00
49122;BME280;35529;44.342;25.944;2022-09-29T07:06:14;99746.59;;;20.51;100.00
49122;BME280;35529;44.342;25.944;2022-09-29T07:08:40;99745.53;;;20.52;100.00
49122;BME280;35529;44.342;25.944;2022-09-29T07:11:06;99753.13;;;20.45;100.00
49122;BME280;35529;44.342;25.944;2022-09-29T07:13:33;99756.97;;;20.33;100.00
49122;BME280;35529;44.342;25.944;2022-09-29T07:16:06;99759.47;;;20.24;100.00
49122;BME280;35529;44.342;25.944;2022-09-29T07:18:33;99755.16;;;20.18;100.00
49122;BME280;35529;44.342;25.944;2022-09-29T07:21:00;99755.72;;;20.15;100.00
49122;BME280;35529;44.342;25.944;2022-09-29T07:23:26;99752.50;;;20.13;100.00
49122;BME280;35529;44.342;25.944;2022-09-29T07:25:52;99752.78;;;20.12;100.00
49122;BME280;35529;44.342;25.944;2022-09-29T07:28:21;99754.41;;;20.07;100.00
49122;BME280;35529;44.342;25.944;2022-09-29T07:30:56;99760.09;;;20.06;100.00
49122;BME280;35529;44.342;25.944;2022-09-29T07:33:22;99755.53;;;20.01;100.00
49122;BME280;35529;44.342;25.944;2022-09-29T07:35:50;99760.38;;;19.99;100.00
49122;BME280;35529;44.342;25.944;2022-09-29T07:38:17;99761.25;;;19.95;100.00
49122;BME280;35529;44.342;25.944;2022-09-29T07:40:43;99762.53;;;19.97;100.00
49122;BME280;35529;44.342;25.944;2022-09-29T07:43:09;99762.00;;;20.05;100.00
49122;BME280;35529;44.342;25.944;2022-09-29T07:45:35;99757.94;;;20.08;100.00
49122;BME280;35529;44.342;25.944;2022-09-29T07:48:01;99752.75;;;20.17;100.00
49122;BME280;35529;44.342;25.944;2022-09-29T07:50:31;99751.09;;;20.26;100.00
49122;BME280;35529;44.342;25.944;2022-09-29T07:53:00;99749.41;;;20.35;100.00
49122;BME280;35529;44.342;25.944;2022-09-29T07:55:32;99748.31;;;20.41;100.00
49122;BME280;35529;44.342;25.944;2022-09-29T07:57:58;99744.47;;;20.48;100.00
49122;BME280;35529;44.342;25.944;2022-09-29T08:00:30;99752.22;;;20.59;100.00
49122;BME280;35529;44.342;25.944;2022-09-29T08:03:05;99750.56;;;20.69;100.00
49122;BME280;35529;44.342;25.944;2022-09-29T08:05:34;99747.53;;;20.75;100.00
49122;BME280;35529;44.342;25.944;2022-09-29T08:08:01;99749.63;;;20.84;100.00
49122;BME280;35529;44.342;25.944;2022-09-29T08:10:31;99749.59;;;20.89;100.00
49122;BME280;35529;44.342;25.944;2022-09-29T08:13:00;99750.59;;;20.98;100.00
49122;BME280;35529;44.342;25.944;2022-09-29T08:15:26;99742.66;;;21.07;100.00
49122;BME280;35529;44.342;25.944;2022-09-29T08:17:54;99741.78;;;21.17;100.00
49122;BME280;35529;44.342;25.944;2022-09-29T08:20:23;99747.06;;;21.27;100.00
49122;BME280;35529;44.342;25.944;2022-09-29T08:22:51;99749.94;;;21.36;100.00
49122;BME280;35529;44.342;25.944;2022-09-29T08:25:21;99756.84;;;21.47;100.00
49122;BME280;35529;44.342;25.944;2022-09-29T08:27:53;99750.50;;;21.62;100.00
49122;BME280;35529;44.342;25.944;2022-09-29T08:30:19;99742.25;;;21.72;100.00
49122;BME280;35529;44.342;25.944;2022-09-29T08:32:50;99739.38;;;21.88;100.00
49122;BME280;35529;44.342;25.944;2022-09-29T08:35:21;99739.09;;;22.08;100.00
49122;BME280;35529;44.342;25.944;2022-09-29T08:37:53;99746.72;;;22.25;100.00
49122;BME280;35529;44.342;25.944;2022-09-29T08:40:19;99751.13;;;22.40;100.00
49122;BME280;35529;44.342;25.944;2022-09-29T08:45:34;99753.25;;;22.76;100.00
49122;BME280;35529;44.342;25.944;2022-09-29T08:48:06;99750.81;;;22.94;100.00
49122;BME280;35529;44.342;25.944;2022-09-29T08:50:48;99756.91;;;23.19;100.00
49122;BME280;35529;44.342;25.944;2022-09-29T08:53:23;99756.00;;;23.37;100.00
49122;BME280;35529;44.342;25.944;2022-09-29T08:58:22;99742.53;;;23.88;100.00
49122;BME280;35529;44.342;25.944;2022-09-29T09:03:35;99744.75;;;24.36;100.00
49122;BME280;35529;44.342;25.944;2022-09-29T09:06:15;99748.22;;;24.51;100.00
49122;BME280;35529;44.342;25.944;2022-09-29T09:20:08;99744.72;;;25.67;100.00
49122;BME280;35529;44.342;25.944;2022-09-29T09:22:45;99738.06;;;25.91;100.00
49122;BME280;35529;44.342;25.944;2022-09-29T09:25:31;99732.47;;;25.96;100.00
49122;BME280;35529;44.342;25.944;2022-09-29T09:30:27;99742.91;;;26.12;100.00
49122;BME280;35529;44.342;25.944;2022-09-29T09:32:56;99733.94;;;26.20;100.00
49122;BME280;35529;44.342;25.944;2022-09-29T09:38:25;99740.69;;;26.31;100.00
49122;BME280;35529;44.342;25.944;2022-09-29T09:40:54;99738.09;;;26.43;100.00
49122;BME280;35529;44.342;25.944;2022-09-29T09:43:28;99733.44;;;26.53;100.00
49122;BME280;35529;44.342;25.944;2022-09-29T09:46:19;99723.19;;;26.58;100.00
49122;BME280;35529;44.342;25.944;2022-09-29T09:59:32;99720.00;;;27.21;100.00
49122;BME280;35529;44.342;25.944;2022-09-29T10:02:00;99718.06;;;27.22;100.00
49122;BME280;35529;44.342;25.944;2022-09-29T10:04:26;99720.66;;;27.18;100.00
49122;BME280;35529;44.342;25.944;2022-09-29T10:06:52;99718.25;;;27.17;100.00
49122;BME280;35529;44.342;25.944;2022-09-29T10:09:19;99721.28;;;27.24;100.00
49122;BME280;35529;44.342;25.944;2022-09-29T10:11:46;99730.22;;;27.33;100.00
49122;BME280;35529;44.342;25.944;2022-09-29T10:14:13;99727.16;;;27.35;100.00
49122;BME280;35529;44.342;25.944;2022-09-29T10:16:44;99741.75;;;27.39;100.00
49122;BME280;35529;44.342;25.944;2022-09-29T10:19:13;99737.72;;;27.45;100.00
49122;BME280;35529;44.342;25.944;2022-09-29T10:21:40;99739.94;;;27.52;100.00
49122;BME280;35529;44.342;25.944;2022-09-29T10:24:28;99741.81;;;27.60;100.00
49122;BME280;35529;44.342;25.944;2022-09-29T10:27:00;99737.91;;;27.31;74.24
49122;BME280;35529;44.342;25.944;2022-09-29T10:29:36;99739.50;;;27.32;93.20
49122;BME280;35529;44.342;25.944;2022-09-29T10:32:21;99747.19;;;27.48;100.00
49122;BME280;35529;44.342;25.944;2022-09-29T10:34:48;99739.09;;;27.60;100.00
49122;BME280;35529;44.342;25.944;2022-09-29T10:37:29;99752.94;;;27.76;100.00
49122;BME280;35529;44.342;25.944;2022-09-29T10:40:12;99754.63;;;27.89;100.00
49122;BME280;35529;44.342;25.944;2022-09-29T10:42:41;99752.50;;;27.95;100.00
49122;BME280;35529;44.342;25.944;2022-09-29T10:47:51;99734.34;;;27.99;100.00
49122;BME280;35529;44.342;25.944;2022-09-29T10:50:33;99729.50;;;28.05;100.00
49122;BME280;35529;44.342;25.944;2022-09-29T10:53:03;99737.31;;;28.15;100.00
49122;BME280;35529;44.342;25.944;2022-09-29T10:55:33;99736.63;;;28.18;100.00
49122;BME280;35529;44.342;25.944;2022-09-29T11:00:46;99726.38;;;28.15;100.00
49122;BME280;35529;44.342;25.944;2022-09-29T11:03:19;99727.78;;;28.21;100.00
49122;BME280;35529;44.342;25.944;2022-09-29T11:05:52;99729.25;;;28.19;100.00
49122;BME280;35529;44.342;25.944;2022-09-29T11:08:24;99726.53;;;28.19;100.00
49122;BME280;35529;44.342;25.944;2022-09-29T11:13:33;99723.31;;;28.17;99.53
49122;BME280;35529;44.342;25.944;2022-09-29T11:16:51;99729.31;;;28.10;100.00
49122;BME280;35529;44.342;25.944;2022-09-29T11:18:53;99723.75;;;28.06;100.00
49122;BME280;35529;44.342;25.944;2022-09-29T11:29:36;99715.75;;;27.71;96.16
49122;BME280;35529;44.342;25.944;2022-09-29T11:32:20;99723.19;;;27.62;100.00
49122;BME280;35529;44.342;25.944;2022-09-29T11:45:10;99712.75;;;27.64;94.08
49122;BME280;35529;44.342;25.944;2022-09-29T11:47:46;99718.31;;;27.47;100.00
49122;BME280;35529;44.342;25.944;2022-09-29T11:55:40;99713.84;;;26.95;100.00
49122;BME280;35529;44.342;25.944;2022-09-29T12:03:18;99721.75;;;26.61;100.00
49122;BME280;35529;44.342;25.944;2022-09-29T12:05:52;99718.41;;;26.55;100.00
49122;BME280;35529;44.342;25.944;2022-09-29T12:10:57;99728.47;;;26.55;100.00
49122;BME280;35529;44.342;25.944;2022-09-29T12:16:22;99707.66;;;26.59;96.09
49122;BME280;35529;44.342;25.944;2022-09-29T12:19:11;99707.19;;;26.66;100.00
49122;BME280;35529;44.342;25.944;2022-09-29T12:21:40;99713.28;;;26.71;100.00
49122;BME280;35529;44.342;25.944;2022-09-29T12:24:11;99712.63;;;26.74;100.00
49122;BME280;35529;44.342;25.944;2022-09-29T12:26:40;99713.56;;;26.70;100.00
49122;BME280;35529;44.342;25.944;2022-09-29T12:31:48;99697.38;;;26.82;86.19
49122;BME280;35529;44.342;25.944;2022-09-29T12:39:37;99708.69;;;27.02;93.81
49122;BME280;35529;44.342;25.944;2022-09-29T12:44:50;99700.28;;;26.86;88.74
49122;BME280;35529;44.342;25.944;2022-09-29T12:47:22;99697.66;;;26.89;88.64
49122;BME280;35529;44.342;25.944;2022-09-29T12:50:02;99699.44;;;26.94;89.14
49122;BME280;35529;44.342;25.944;2022-09-29T12:52:32;99701.50;;;26.97;92.73
49122;BME280;35529;44.342;25.944;2022-09-29T12:55:03;99691.88;;;27.00;86.80
49122;BME280;35529;44.342;25.944;2022-09-29T12:57:36;99703.81;;;27.16;94.72
49122;BME280;35529;44.342;25.944;2022-09-29T13:00:14;99702.16;;;27.33;83.12
49122;BME280;35529;44.342;25.944;2022-09-29T13:13:30;99695.50;;;28.02;80.20
49122;BME280;35529;44.342;25.944;2022-09-29T13:16:17;99695.59;;;27.85;80.73
49122;BME280;35529;44.342;25.944;2022-09-29T13:19:04;99687.88;;;27.87;79.80
49122;BME280;35529;44.342;25.944;2022-09-29T13:22:15;99692.75;;;27.81;79.86
49122;BME280;35529;44.342;25.944;2022-09-29T13:29:52;99692.31;;;27.49;65.17
49122;BME280;35529;44.342;25.944;2022-09-29T13:32:22;99698.56;;;27.50;82.30
49122;BME280;35529;44.342;25.944;2022-09-29T13:34:55;99696.00;;;27.45;83.84
49122;BME280;35529;44.342;25.944;2022-09-29T13:37:24;99689.50;;;27.37;74.90
49122;BME280;35529;44.342;25.944;2022-09-29T13:40:01;99703.91;;;27.37;71.36
49122;BME280;35529;44.342;25.944;2022-09-29T13:42:40;99690.78;;;27.31;64.78
49122;BME280;35529;44.342;25.944;2022-09-29T13:47:48;99694.38;;;27.14;64.85
49122;BME280;35529;44.342;25.944;2022-09-29T13:55:49;99715.44;;;26.96;71.33
49122;BME280;35529;44.342;25.944;2022-09-29T13:58:25;99702.50;;;26.84;71.91
49122;BME280;35529;44.342;25.944;2022-09-29T14:00:57;99711.84;;;26.74;75.25
49122;BME280;35529;44.342;25.944;2022-09-29T14:05:52;99704.63;;;26.52;77.02
49122;BME280;35529;44.342;25.944;2022-09-29T14:08:26;99710.88;;;26.35;81.87
49122;BME280;35529;44.342;25.944;2022-09-29T14:10:58;99709.78;;;26.27;76.08
49122;BME280;35529;44.342;25.944;2022-09-29T14:13:27;99709.47;;;26.29;79.71
49122;BME280;35529;44.342;25.944;2022-09-29T14:18:30;99716.66;;;26.33;97.78
49122;BME280;35529;44.342;25.944;2022-09-29T14:21:03;99718.09;;;26.31;100.00
49122;BME280;35529;44.342;25.944;2022-09-29T14:28:57;99727.88;;;26.23;100.00
49122;BME280;35529;44.342;25.944;2022-09-29T14:31:27;99721.16;;;26.20;100.00
49122;BME280;35529;44.342;25.944;2022-09-29T14:33:59;99726.88;;;26.19;100.00
49122;BME280;35529;44.342;25.944;2022-09-29T14:36:29;99716.34;;;26.08;86.61
49122;BME280;35529;44.342;25.944;2022-09-29T14:38:56;99723.69;;;26.08;100.00
49122;BME280;35529;44.342;25.944;2022-09-29T14:41:30;99725.13;;;26.05;97.35
49122;BME280;35529;44.342;25.944;2022-09-29T14:44:01;99729.75;;;25.96;88.49
49122;BME280;35529;44.342;25.944;2022-09-29T14:54:52;99753.97;;;25.66;100.00
49122;BME280;35529;44.342;25.944;2022-09-29T15:02:24;99747.22;;;25.46;100.00
49122;BME280;35529;44.342;25.944;2022-09-29T15:04:52;99747.97;;;25.38;100.00
49122;BME280;35529;44.342;25.944;2022-09-29T15:07:21;99768.53;;;25.30;100.00
49122;BME280;35529;44.342;25.944;2022-09-29T15:09:57;99749.03;;;25.28;100.00
49122;BME280;35529;44.342;25.944;2022-09-29T15:12:25;99755.41;;;25.23;100.00
49122;BME280;35529;44.342;25.944;2022-09-29T15:14:54;99753.50;;;25.24;98.66
49122;BME280;35529;44.342;25.944;2022-09-29T15:20:36;99754.94;;;25.30;100.00
49122;BME280;35529;44.342;25.944;2022-09-29T15:25:48;99767.53;;;25.17;100.00
49122;BME280;35529;44.342;25.944;2022-09-29T15:28:20;99763.91;;;24.99;100.00
49122;BME280;35529;44.342;25.944;2022-09-29T15:30:50;99771.19;;;24.90;100.00
49122;BME280;35529;44.342;25.944;2022-09-29T15:33:21;99766.47;;;24.73;100.00
49122;BME280;35529;44.342;25.944;2022-09-29T15:35:52;99770.50;;;24.62;100.00
49122;BME280;35529;44.342;25.944;2022-09-29T15:38:28;99768.94;;;24.47;97.59
49122;BME280;35529;44.342;25.944;2022-09-29T15:41:00;99766.28;;;24.33;92.87
49122;BME280;35529;44.342;25.944;2022-09-29T15:43:29;99777.06;;;24.24;99.70
49122;BME280;35529;44.342;25.944;2022-09-29T15:46:00;99770.25;;;24.13;91.12
49122;BME280;35529;44.342;25.944;2022-09-29T15:48:27;99779.22;;;23.99;96.81
49122;BME280;35529;44.342;25.944;2022-09-29T15:50:57;99784.94;;;23.84;99.66